台北飛航服務區-掃描席(區管/近場)

METAR RCTP 220530Z 31010KT 9999 FEW020 31/25 Q1010 NOSIG RMK A2984=